Time,TemperatureF,DewpointF,PressureIn,WindDirection,WindDirectionDegrees,WindSpeedMPH,WindSpeedGustMPH,Humidity,HourlyPrecipIn,Conditions,Clouds,dailyrainin,SoftwareType,DateUTC
2013-03-27 00:00:00,32.5,15.1,29.85,ESE,106,4.0,6.7,48,0.00,,,-99.99,FreeWX 2.04,2013-03-27 06:00:00,
2013-03-27 00:10:00,32.5,15.1,29.85,ESE,115,1.0,6.3,48,0.00,,,-99.99,FreeWX 2.04,2013-03-27 06:10:00,
2013-03-27 00:20:00,32.5,15.1,29.85,ESE,111,2.0,5.4,48,0.00,,,-99.99,FreeWX 2.04,2013-03-27 06:20:00,
2013-03-27 00:30:00,32.5,15.4,29.85,ESE,112,3.0,5.4,49,0.00,,,-99.99,FreeWX 2.04,2013-03-27 06:30:00,
2013-03-27 00:40:00,32.5,16.0,29.85,ESE,110,3.0,6.3,50,0.00,,,-99.99,FreeWX 2.04,2013-03-27 06:40:00,
2013-03-27 00:50:00,32.4,16.3,29.85,East,100,2.0,4.9,51,0.00,,,-99.99,FreeWX 2.04,2013-03-27 06:50:00,
2013-03-27 01:00:00,32.4,16.7,29.85,North,-999,0.0,4.5,52,0.00,,,-99.99,FreeWX 2.04,2013-03-27 07:00:00,
2013-03-27 01:10:00,32.2,17.1,29.85,North,-999,0.0,0.0,53,0.00,,,-99.99,FreeWX 2.04,2013-03-27 07:10:00,
2013-03-27 01:20:00,31.6,17.4,29.85,North,-999,0.0,3.6,55,0.00,,,-99.99,FreeWX 2.04,2013-03-27 07:20:00,
2013-03-27 01:30:00,31.3,18.7,29.85,NNE,29,1.0,4.5,59,0.00,,,-99.99,FreeWX 2.04,2013-03-27 07:30:00,
2013-03-27 01:40:00,30.9,19.0,29.85,North,-999,0.0,4.0,61,0.00,,,-99.99,FreeWX 2.04,2013-03-27 07:40:00,
2013-03-27 01:50:00,30.7,19.6,29.85,North,-999,0.0,0.0,63,0.00,,,-99.99,FreeWX 2.04,2013-03-27 07:50:00,
2013-03-27 02:00:00,30.6,19.9,29.85,North,-999,0.0,0.0,64,0.00,,,-99.99,FreeWX 2.04,2013-03-27 08:00:00,
2013-03-27 02:10:00,30.4,19.8,29.85,North,-999,0.0,0.0,64,0.00,,,-99.99,FreeWX 2.04,2013-03-27 08:10:00,
2013-03-27 02:20:00,30.6,20.7,29.85,North,-999,0.0,0.0,66,0.00,,,-99.99,FreeWX 2.04,2013-03-27 08:20:00,
2013-03-27 02:30:00,30.2,19.9,29.85,North,-999,0.0,0.0,65,0.00,,,-99.99,FreeWX 2.04,2013-03-27 08:30:00,
2013-03-27 02:40:00,29.8,19.6,29.85,North,-999,0.0,0.0,65,0.00,,,-99.99,FreeWX 2.04,2013-03-27 08:40:00,
2013-03-27 02:50:00,29.7,19.8,29.85,North,-999,0.0,0.0,66,0.00,,,-99.99,FreeWX 2.04,2013-03-27 08:50:00,
2013-03-27 03:00:00,29.5,19.9,29.85,North,-999,0.0,0.0,67,0.00,,,-99.99,FreeWX 2.04,2013-03-27 09:00:00,
2013-03-27 03:10:00,29.7,20.5,29.85,North,-999,0.0,0.0,68,0.00,,,-99.99,FreeWX 2.04,2013-03-27 09:10:00,
2013-03-27 03:20:00,29.7,20.8,29.85,North,-999,0.0,0.0,69,0.00,,,-99.99,FreeWX 2.04,2013-03-27 09:20:00,
2013-03-27 03:30:00,30.0,21.4,29.85,North,-999,0.0,0.0,70,0.00,,,-99.99,FreeWX 2.04,2013-03-27 09:30:00,
2013-03-27 03:40:00,29.8,21.0,29.85,ENE,72,1.0,4.0,69,0.00,,,-99.99,FreeWX 2.04,2013-03-27 09:40:00,
2013-03-27 03:50:00,29.8,20.3,29.85,SE,128,2.0,4.5,67,0.00,,,-99.99,FreeWX 2.04,2013-03-27 09:50:00,
2013-03-27 04:00:00,30.0,20.1,29.85,ESE,104,2.0,4.5,66,0.00,,,-99.99,FreeWX 2.04,2013-03-27 10:00:00,
2013-03-27 04:10:00,30.0,19.4,29.85,ESE,109,2.0,4.9,64,0.00,,,-99.99,FreeWX 2.04,2013-03-27 10:10:00,
2013-03-27 04:20:00,30.2,19.2,29.85,ESE,120,3.0,4.9,63,0.00,,,-99.99,FreeWX 2.04,2013-03-27 10:20:00,
2013-03-27 04:30:00,30.4,19.4,29.85,ESE,118,1.0,4.9,63,0.00,,,-99.99,FreeWX 2.04,2013-03-27 10:30:00,
2013-03-27 04:40:00,30.2,19.2,29.85,North,-999,0.0,0.0,63,0.00,,,-99.99,FreeWX 2.04,2013-03-27 10:40:00,
2013-03-27 04:50:00,30.2,18.9,29.85,North,-999,0.0,0.0,62,0.00,,,-99.99,FreeWX 2.04,2013-03-27 10:50:00,
2013-03-27 05:00:00,30.2,18.9,29.85,North,-999,0.0,2.7,62,0.00,,,-99.99,FreeWX 2.04,2013-03-27 11:00:00,
2013-03-27 05:10:00,30.0,19.0,29.85,North,-999,0.0,4.0,63,0.00,,,-99.99,FreeWX 2.04,2013-03-27 11:10:00,
2013-03-27 05:20:00,29.8,18.5,29.85,ESE,118,1.0,6.7,62,0.00,,,-99.99,FreeWX 2.04,2013-03-27 11:20:00,
2013-03-27 05:30:00,29.7,17.1,29.85,ESE,108,1.0,4.9,59,0.00,,,-99.99,FreeWX 2.04,2013-03-27 11:30:00,
2013-03-27 05:40:00,29.7,16.7,29.85,SE,137,4.0,5.8,58,0.00,,,-99.99,FreeWX 2.04,2013-03-27 11:40:00,
2013-03-27 05:50:00,30.0,16.2,29.85,ESE,123,2.0,6.7,56,0.00,,,-99.99,FreeWX 2.04,2013-03-27 11:50:00,
2013-03-27 06:00:00,30.4,15.3,29.85,ESE,107,4.0,6.7,53,0.00,,,-99.99,FreeWX 2.04,2013-03-27 12:00:00,
2013-03-27 06:10:00,30.4,14.9,29.85,ESE,118,1.0,5.4,52,0.00,,,-99.99,FreeWX 2.04,2013-03-27 12:10:00,
2013-03-27 06:20:00,30.6,15.1,29.85,ESE,120,3.0,6.3,52,0.00,,,-99.99,FreeWX 2.04,2013-03-27 12:20:00,
2013-03-27 06:30:00,30.4,14.4,29.85,ESE,107,2.0,6.3,51,0.00,,,-99.99,FreeWX 2.04,2013-03-27 12:30:00,
2013-03-27 06:40:00,30.4,14.4,29.88,ESE,118,3.0,6.7,51,0.00,,,-99.99,FreeWX 2.04,2013-03-27 12:40:00,
2013-03-27 06:50:00,30.7,14.7,29.88,ESE,122,3.0,7.4,51,0.00,,,-99.99,FreeWX 2.04,2013-03-27 12:50:00,
2013-03-27 07:00:00,30.7,14.4,29.88,SE,143,4.0,6.9,50,0.00,,,-99.99,FreeWX 2.04,2013-03-27 13:00:00,
2013-03-27 07:10:00,30.7,14.4,29.88,SSE,149,3.0,6.3,50,0.00,,,-99.99,FreeWX 2.04,2013-03-27 13:10:00,
2013-03-27 07:20:00,30.6,14.5,29.88,ESE,102,4.0,6.3,51,0.00,,,-99.99,FreeWX 2.04,2013-03-27 13:20:00,
2013-03-27 07:30:00,30.9,14.9,29.88,ESE,109,2.0,4.9,51,0.00,,,-99.99,FreeWX 2.04,2013-03-27 13:30:00,
2013-03-27 07:40:00,31.1,14.7,29.88,North,-999,0.0,2.7,50,0.00,,,-99.99,FreeWX 2.04,2013-03-27 13:40:00,
2013-03-27 07:50:00,31.3,14.9,29.88,North,-999,0.0,0.0,50,0.00,,,-99.99,FreeWX 2.04,2013-03-27 13:50:00,
2013-03-27 08:00:00,31.3,14.4,29.88,North,-999,0.0,0.0,49,0.00,,,-99.99,FreeWX 2.04,2013-03-27 14:00:00,
2013-03-27 08:10:00,31.3,14.4,29.88,North,-999,0.0,0.0,49,0.00,,,-99.99,FreeWX 2.04,2013-03-27 14:10:00,
2013-03-27 08:20:00,31.6,14.2,29.88,North,-999,0.0,0.0,48,0.00,,,-99.99,FreeWX 2.04,2013-03-27 14:20:00,
2013-03-27 08:31:00,32.2,14.2,29.88,North,-999,0.0,0.0,47,0.00,,,-99.99,FreeWX 2.04,2013-03-27 14:31:00,
2013-03-27 08:41:00,32.5,14.0,29.88,North,-999,0.0,0.0,46,0.00,,,-99.99,FreeWX 2.04,2013-03-27 14:41:00,
2013-03-27 08:51:00,32.9,14.4,29.88,North,-999,0.0,0.0,46,0.00,,,-99.99,FreeWX 2.04,2013-03-27 14:51:00,
2013-03-27 09:01:00,33.3,14.7,29.88,North,-999,0.0,3.1,46,0.00,,,-99.99,FreeWX 2.04,2013-03-27 15:01:00,
2013-03-27 09:11:00,34.0,14.4,29.88,North,-999,0.0,0.0,44,0.00,,,-99.99,FreeWX 2.04,2013-03-27 15:11:00,
2013-03-27 09:21:00,34.9,14.7,29.88,North,-999,0.0,3.1,43,0.00,,,-99.99,FreeWX 2.04,2013-03-27 15:21:00,
2013-03-27 09:31:00,34.3,15.3,29.88,North,-999,0.0,4.0,45,0.00,,,-99.99,FreeWX 2.04,2013-03-27 15:31:00,
2013-03-27 09:41:00,34.9,16.7,29.88,North,-999,0.0,4.9,47,0.00,,,-99.99,FreeWX 2.04,2013-03-27 15:41:00,
2013-03-27 09:51:00,35.6,16.3,29.88,North,-999,0.0,0.0,45,0.00,,,-99.99,FreeWX 2.04,2013-03-27 15:51:00,
2013-03-27 10:01:00,36.1,16.3,29.88,North,-999,0.0,0.0,44,0.00,,,-99.99,FreeWX 2.04,2013-03-27 16:01:00,
2013-03-27 10:11:00,37.6,16.0,29.88,North,-999,0.0,0.0,41,0.00,,,-99.99,FreeWX 2.04,2013-03-27 16:11:00,
2013-03-27 10:21:00,39.7,15.6,29.88,ESE,111,3.0,5.4,37,0.00,,,-99.99,FreeWX 2.04,2013-03-27 16:21:00,
2013-03-27 10:31:00,42.1,12.2,29.88,ESE,111,1.0,6.3,29,0.00,,,-99.99,FreeWX 2.04,2013-03-27 16:31:00,
2013-03-27 10:41:00,37.9,15.3,29.88,North,10,4.0,7.4,39,0.00,,,-99.99,FreeWX 2.04,2013-03-27 16:41:00,
2013-03-27 10:51:00,37.0,16.2,29.88,NNW,335,4.0,6.9,42,0.00,,,-99.99,FreeWX 2.04,2013-03-27 16:51:00,
2013-03-27 11:12:00,37.0,15.6,29.91,NNW,340,4.0,5.8,41,0.00,,,-99.99,FreeWX 2.04,2013-03-27 17:12:00,
2013-03-27 11:22:00,36.5,15.1,29.91,NNW,335,5.0,6.9,41,0.00,,,-99.99,FreeWX 2.04,2013-03-27 17:22:00,
2013-03-27 11:32:00,37.0,15.6,29.91,NNW,339,4.0,6.3,41,0.00,,,-99.99,FreeWX 2.04,2013-03-27 17:32:00,
2013-03-27 11:42:00,37.4,14.7,29.91,NNW,327,4.0,6.7,39,0.00,,,-99.99,FreeWX 2.04,2013-03-27 17:42:00,
2013-03-27 11:52:00,37.6,14.9,29.91,NNW,333,4.0,6.3,39,0.00,,,-99.99,FreeWX 2.04,2013-03-27 17:52:00,
2013-03-27 12:02:00,38.3,14.9,29.91,NNW,331,4.0,5.8,38,0.00,,,-99.99,FreeWX 2.04,2013-03-27 18:02:00,
2013-03-27 12:12:00,38.7,15.3,29.91,NW,323,5.0,6.3,38,0.00,,,-99.99,FreeWX 2.04,2013-03-27 18:12:00,
2013-03-27 12:22:00,39.2,13.3,29.88,NNW,346,4.0,5.4,34,0.00,,,-99.99,FreeWX 2.04,2013-03-27 18:22:00,
2013-03-27 12:32:00,40.3,12.7,29.88,NNW,332,4.0,5.4,32,0.00,,,-99.99,FreeWX 2.04,2013-03-27 18:32:00,
2013-03-27 12:42:00,40.8,11.1,29.88,North,353,4.0,5.8,29,0.00,,,-99.99,FreeWX 2.04,2013-03-27 18:42:00,
2013-03-27 12:52:00,42.6,11.8,29.88,North,354,4.0,6.7,28,0.00,,,-99.99,FreeWX 2.04,2013-03-27 18:52:00,
2013-03-27 13:02:00,43.5,12.6,29.88,North,353,4.0,6.7,28,0.00,,,-99.99,FreeWX 2.04,2013-03-27 19:02:00,
2013-03-27 13:12:00,41.9,11.1,29.88,NNW,332,5.0,6.9,28,0.00,,,-99.99,FreeWX 2.04,2013-03-27 19:12:00,
2013-03-27 13:22:00,44.1,12.2,29.88,NNW,331,3.0,6.9,27,0.00,,,-99.99,FreeWX 2.04,2013-03-27 19:22:00,
2013-03-27 13:32:00,44.4,10.8,29.88,WSW,247,2.0,8.7,25,0.00,,,-99.99,FreeWX 2.04,2013-03-27 19:32:00,
2013-03-27 13:42:00,46.9,12.0,29.91,SSW,211,2.0,6.3,24,0.00,,,-99.99,FreeWX 2.04,2013-03-27 19:42:00,
2013-03-27 13:52:00,46.8,11.8,29.91,South,172,4.0,6.7,24,0.00,,,-99.99,FreeWX 2.04,2013-03-27 19:52:00,
2013-03-27 14:02:00,45.5,9.0,29.91,South,183,3.0,6.3,22,0.00,,,-99.99,FreeWX 2.04,2013-03-27 20:02:00,
2013-03-27 14:12:00,44.1,10.6,29.91,South,186,4.0,8.3,25,0.00,,,-99.99,FreeWX 2.04,2013-03-27 20:12:00,
2013-03-27 14:22:00,45.7,9.0,29.91,South,191,4.0,9.2,22,0.00,,,-99.99,FreeWX 2.04,2013-03-27 20:22:00,
2013-03-27 14:32:00,45.1,6.4,29.91,SSW,200,4.0,8.3,20,0.00,,,-99.99,FreeWX 2.04,2013-03-27 20:32:00,
2013-03-27 14:42:00,45.5,9.0,29.91,SSW,203,5.0,9.6,22,0.00,,,-99.99,FreeWX 2.04,2013-03-27 20:42:00,
2013-03-27 14:52:00,46.0,6.1,29.91,SW,215,4.0,8.3,19,0.00,,,-99.99,FreeWX 2.04,2013-03-27 20:52:00,
2013-03-27 15:02:00,42.3,11.5,29.91,NW,314,3.0,6.3,28,0.00,,,-99.99,FreeWX 2.04,2013-03-27 21:02:00,
2013-03-27 15:12:00,40.5,12.9,29.91,NNW,336,6.0,7.8,32,0.00,,,-99.99,FreeWX 2.04,2013-03-27 21:12:00,
2013-03-27 15:22:00,39.4,14.0,29.91,NW,324,7.0,11.0,35,0.00,,,-99.99,FreeWX 2.04,2013-03-27 21:22:00,
2013-03-27 15:32:00,39.9,14.5,29.91,NNW,331,7.0,11.6,35,0.00,,,-99.99,FreeWX 2.04,2013-03-27 21:32:00,
2013-03-27 15:42:00,38.5,16.3,29.91,NNW,338,7.0,10.5,40,0.00,,,-99.99,FreeWX 2.04,2013-03-27 21:42:00,
2013-03-27 15:52:00,39.0,16.2,29.91,NW,323,4.0,7.8,39,0.00,,,-99.99,FreeWX 2.04,2013-03-27 21:52:00,
2013-03-27 16:02:00,39.6,16.7,29.91,WNW,302,5.0,10.5,39,0.00,,,-99.99,FreeWX 2.04,2013-03-27 22:02:00,
2013-03-27 16:12:00,41.5,17.2,29.91,NW,326,5.0,10.1,37,0.00,,,-99.99,FreeWX 2.04,2013-03-27 22:12:00,
2013-03-27 16:22:00,40.6,17.1,29.91,North,354,4.0,7.4,38,0.00,,,-99.99,FreeWX 2.04,2013-03-27 22:22:00,
2013-03-27 16:32:00,42.4,15.4,29.91,North,351,1.0,4.9,33,0.00,,,-99.99,FreeWX 2.04,2013-03-27 22:32:00,
2013-03-27 16:42:00,43.5,13.5,29.91,North,-999,0.0,0.0,29,0.00,,,-99.99,FreeWX 2.04,2013-03-27 22:42:00,
2013-03-27 16:52:00,44.2,13.3,29.91,WNW,299,2.0,4.9,28,0.00,,,-99.99,FreeWX 2.04,2013-03-27 22:52:00,
2013-03-27 17:02:00,41.9,12.0,29.91,North,-999,0.0,4.0,29,0.00,,,-99.99,FreeWX 2.04,2013-03-27 23:02:00,
2013-03-27 17:12:00,42.1,12.9,29.91,North,-999,0.0,0.0,30,0.00,,,-99.99,FreeWX 2.04,2013-03-27 23:12:00,
2013-03-27 17:22:00,43.2,13.8,29.91,SSW,213,3.0,7.4,30,0.00,,,-99.99,FreeWX 2.04,2013-03-27 23:22:00,
2013-03-27 17:32:00,43.0,15.1,29.91,SE,138,4.0,8.3,32,0.00,,,-99.99,FreeWX 2.04,2013-03-27 23:32:00,
2013-03-27 17:42:00,42.4,14.7,29.91,East,95,2.0,5.4,32,0.00,,,-99.99,FreeWX 2.04,2013-03-27 23:42:00,
2013-03-27 17:52:00,41.0,14.7,29.91,ESE,104,1.0,4.9,34,0.00,,,-99.99,FreeWX 2.04,2013-03-27 23:52:00,
2013-03-27 18:02:00,42.6,14.2,29.91,North,-999,0.0,0.0,31,0.00,,,-99.99,FreeWX 2.04,2013-03-28 00:02:00,
2013-03-27 18:12:00,44.2,14.7,29.91,North,-999,0.0,0.0,30,0.00,,,-99.99,FreeWX 2.04,2013-03-28 00:12:00,
2013-03-27 18:43:00,42.8,13.5,29.91,North,-999,0.0,0.0,30,0.00,,,-99.99,FreeWX 2.04,2013-03-28 00:43:00,
2013-03-27 18:53:00,43.0,12.9,29.91,North,-999,0.0,0.0,29,0.00,,,-99.99,FreeWX 2.04,2013-03-28 00:53:00,
2013-03-27 19:03:00,42.1,12.9,29.91,SSW,196,2.0,4.9,30,0.00,,,-99.99,FreeWX 2.04,2013-03-28 01:03:00,
2013-03-27 19:13:00,39.9,13.1,29.91,SE,128,4.0,6.3,33,0.00,,,-99.99,FreeWX 2.04,2013-03-28 01:13:00,
2013-03-27 19:23:00,38.5,15.1,29.91,SE,131,4.0,6.9,38,0.00,,,-99.99,FreeWX 2.04,2013-03-28 01:23:00,
2013-03-27 19:33:00,37.8,15.6,29.91,SE,124,2.0,5.8,40,0.00,,,-99.99,FreeWX 2.04,2013-03-28 01:33:00,
2013-03-27 19:43:00,37.6,15.4,29.91,ESE,119,4.0,6.7,40,0.00,,,-99.99,FreeWX 2.04,2013-03-28 01:43:00,
2013-03-27 19:53:00,37.4,15.3,29.91,SE,126,4.0,6.9,40,0.00,,,-99.99,FreeWX 2.04,2013-03-28 01:53:00,
2013-03-27 20:03:00,37.0,15.6,29.91,ESE,112,5.0,9.2,41,0.00,,,-99.99,FreeWX 2.04,2013-03-28 02:03:00,
2013-03-27 20:23:00,36.1,15.3,29.91,ESE,106,6.0,9.6,42,0.00,,,-99.99,FreeWX 2.04,2013-03-28 02:23:00,
2013-03-27 20:33:00,36.1,15.3,29.91,ESE,108,6.0,9.6,42,0.00,,,-99.99,FreeWX 2.04,2013-03-28 02:33:00,
2013-03-27 20:44:00,36.0,15.1,29.91,ESE,107,6.0,8.3,42,0.00,,,-99.99,FreeWX 2.04,2013-03-28 02:44:00,
2013-03-27 20:54:00,35.6,15.3,29.91,East,98,5.0,8.3,43,0.00,,,-99.99,FreeWX 2.04,2013-03-28 02:54:00,
2013-03-27 21:04:00,35.6,15.3,29.91,ESE,104,6.0,9.6,43,0.00,,,-99.99,FreeWX 2.04,2013-03-28 03:04:00,
2013-03-27 21:14:00,35.1,14.9,29.91,ESE,102,6.0,8.7,43,0.00,,,-99.99,FreeWX 2.04,2013-03-28 03:14:00,
2013-03-27 21:24:00,35.1,14.9,29.91,ESE,114,6.0,10.1,43,0.00,,,-99.99,FreeWX 2.04,2013-03-28 03:24:00,
2013-03-27 21:34:00,35.1,14.4,29.91,ESE,113,7.0,12.5,42,0.00,,,-99.99,FreeWX 2.04,2013-03-28 03:34:00,
2013-03-27 21:44:00,34.7,14.0,29.91,ESE,113,7.0,11.0,42,0.00,,,-99.99,FreeWX 2.04,2013-03-28 03:44:00,
2013-03-27 21:54:00,34.3,14.2,29.91,ESE,114,6.0,10.1,43,0.00,,,-99.99,FreeWX 2.04,2013-03-28 03:54:00,
2013-03-27 22:04:00,34.2,14.0,29.91,ESE,113,6.0,11.2,43,0.00,,,-99.99,FreeWX 2.04,2013-03-28 04:04:00,
2013-03-27 22:14:00,34.0,13.8,29.91,ESE,109,6.0,10.5,43,0.00,,,-99.99,FreeWX 2.04,2013-03-28 04:14:00,
2013-03-27 22:24:00,33.8,14.2,29.91,ESE,112,7.0,11.0,44,0.00,,,-99.99,FreeWX 2.04,2013-03-28 04:24:00,
2013-03-27 22:34:00,33.6,13.5,29.91,ESE,107,7.0,10.1,43,0.00,,,-99.99,FreeWX 2.04,2013-03-28 04:34:00,
2013-03-27 22:44:00,33.6,13.5,29.91,ESE,109,7.0,11.0,43,0.00,,,-99.99,FreeWX 2.04,2013-03-28 04:44:00,
2013-03-27 22:54:00,33.3,13.3,29.91,ESE,121,7.0,11.6,43,0.00,,,-99.99,FreeWX 2.04,2013-03-28 04:54:00,
2013-03-27 23:04:00,33.3,13.3,29.91,ESE,115,7.0,11.2,43,0.00,,,-99.99,FreeWX 2.04,2013-03-28 05:04:00,
2013-03-27 23:14:00,33.1,13.1,29.91,ESE,115,7.0,12.1,43,0.00,,,-99.99,FreeWX 2.04,2013-03-28 05:14:00,
2013-03-27 23:24:00,33.1,13.1,29.91,ESE,110,7.0,11.2,43,0.00,,,-99.99,FreeWX 2.04,2013-03-28 05:24:00,
2013-03-27 23:34:00,32.7,12.7,29.91,ESE,107,7.0,11.2,43,0.00,,,-99.99,FreeWX 2.04,2013-03-28 05:34:00,
2013-03-27 23:44:00,33.1,12.6,29.91,ESE,102,7.0,11.2,42,0.00,,,-99.99,FreeWX 2.04,2013-03-28 05:44:00,
2013-03-27 23:54:00,33.1,12.6,29.91,ESE,104,7.0,11.2,42,0.00,,,-99.99,FreeWX 2.04,2013-03-28 05:54:00,